createdAt,value
2023-05-22T00:02:25.915Z,2.10
2023-05-22T00:08:29.943Z,2.40
2023-05-22T00:11:34.167Z,2.40
2023-05-22T00:14:35.940Z,2.30
2023-05-22T00:17:38.157Z,2.20
2023-05-22T00:26:44.062Z,2.40
2023-05-22T00:29:46.018Z,2.30
2023-05-22T00:32:47.760Z,2.30
2023-05-22T00:35:50.806Z,2.30
2023-05-22T00:38:52.761Z,2.10
2023-05-22T00:41:54.764Z,2.40
2023-05-22T00:44:56.503Z,2.50
2023-05-22T00:47:58.355Z,2.30
2023-05-22T00:51:00.816Z,2.20
2023-05-22T00:54:04.347Z,2.20
2023-05-22T00:57:06.337Z,2.10
2023-05-22T01:00:12.580Z,2.10
2023-05-22T01:03:15.316Z,2.60
2023-05-22T01:06:18.093Z,2.10
2023-05-22T01:09:19.959Z,2.40
2023-05-22T01:12:34.771Z,2.40
2023-05-22T01:16:00.921Z,2.40
2023-05-22T01:19:08.631Z,2.20
2023-05-22T01:22:33.406Z,2.40
2023-05-22T01:25:35.127Z,2.40
2023-05-22T01:28:39.678Z,2.20
2023-05-22T01:31:45.145Z,2.10
2023-05-22T01:34:51.549Z,2.40
2023-05-22T01:37:54.316Z,2.60
2023-05-22T01:40:56.217Z,2.30
2023-05-22T01:43:59.646Z,2.60
2023-05-22T01:47:04.601Z,2.50
2023-05-22T01:50:07.591Z,2.80
2023-05-22T01:53:13.369Z,2.70
2023-05-22T01:56:30.054Z,2.10
2023-05-22T01:59:42.964Z,2.70
2023-05-22T02:02:50.528Z,2.30
2023-05-22T02:05:55.206Z,2.60
2023-05-22T02:08:58.424Z,2.20
2023-05-22T02:12:00.502Z,2.40
2023-05-22T02:15:05.513Z,2.50
2023-05-22T02:18:13.657Z,2.30
2023-05-22T02:21:15.421Z,2.40
2023-05-22T02:24:17.208Z,2.90
2023-05-22T02:27:19.226Z,2.50
2023-05-22T02:30:20.940Z,3.20
2023-05-22T02:33:24.744Z,2.60
2023-05-22T02:36:28.240Z,2.80
2023-05-22T02:39:30.521Z,2.80
2023-05-22T02:42:33.005Z,2.60
2023-05-22T02:45:34.807Z,2.50
2023-05-22T02:48:36.579Z,2.70
2023-05-22T02:51:38.368Z,2.50
2023-05-22T02:54:40.457Z,2.90
2023-05-22T02:57:42.511Z,2.40
2023-05-22T03:00:44.683Z,2.50
2023-05-22T03:03:47.716Z,2.50
2023-05-22T03:06:49.999Z,2.80
2023-05-22T03:12:53.907Z,2.70
2023-05-22T03:15:55.949Z,2.40
2023-05-22T03:19:16.830Z,2.50
2023-05-22T03:22:18.887Z,2.40
2023-05-22T03:25:21.364Z,2.90
2023-05-22T03:28:23.159Z,2.50
2023-05-22T03:31:27.709Z,2.60
2023-05-22T03:34:38.435Z,3.10
2023-05-22T03:37:41.753Z,2.90
2023-05-22T03:43:45.947Z,2.80
2023-05-22T03:46:48.270Z,2.50
2023-05-22T03:49:50.315Z,2.60
2023-05-22T03:52:52.091Z,2.90
2023-05-22T03:55:53.866Z,2.80
2023-05-22T03:58:55.673Z,2.90
2023-05-22T04:02:00.510Z,2.90
2023-05-22T04:05:02.382Z,2.70
2023-05-22T04:08:04.753Z,3.10
2023-05-22T04:14:08.846Z,2.60
2023-05-22T04:17:11.228Z,2.70
2023-05-22T04:20:13.588Z,2.80
2023-05-22T04:26:17.524Z,2.90
2023-05-22T04:29:21.689Z,2.80
2023-05-22T04:32:23.516Z,3.30
2023-05-22T04:35:25.641Z,3.00
2023-05-22T04:38:27.572Z,2.70
2023-05-22T04:41:30.235Z,3.00
2023-05-22T04:44:33.794Z,2.60
2023-05-22T04:47:37.620Z,3.30
2023-05-22T04:50:41.644Z,3.10
2023-05-22T04:56:45.420Z,2.60
2023-05-22T04:59:47.685Z,2.50
2023-05-22T05:02:49.951Z,3.30
2023-05-22T05:05:51.920Z,2.40
2023-05-22T05:08:54.346Z,3.00
2023-05-22T05:11:56.359Z,3.30
2023-05-22T05:14:58.150Z,2.80
2023-05-22T05:18:00.291Z,2.50
2023-05-22T05:21:02.014Z,2.70
2023-05-22T05:24:03.833Z,2.70
2023-05-22T05:27:05.893Z,2.70
2023-05-22T05:33:34.417Z,2.50
2023-05-22T05:36:56.627Z,2.60
2023-05-22T05:39:58.699Z,2.80
2023-05-22T05:43:01.007Z,2.80
2023-05-22T05:46:04.032Z,2.60
2023-05-22T05:49:09.622Z,2.20
2023-05-22T05:52:11.873Z,2.60
2023-05-22T05:55:13.864Z,2.80
2023-05-22T05:58:16.230Z,5.20
2023-05-22T06:01:30.563Z,3.00
2023-05-22T06:04:33.069Z,2.80
2023-05-22T06:07:37.461Z,2.60
2023-05-22T06:10:39.626Z,3.20
2023-05-22T06:13:50.224Z,3.10
2023-05-22T06:16:52.093Z,2.60
2023-05-22T06:19:54.015Z,2.40
2023-05-22T06:25:58.277Z,3.20
2023-05-22T06:29:00.809Z,3.00
2023-05-22T06:32:03.202Z,2.70
2023-05-22T06:35:06.587Z,3.00
2023-05-22T06:38:08.441Z,3.10
2023-05-22T06:44:12.457Z,2.60
2023-05-22T06:47:14.372Z,3.10
2023-05-22T06:50:16.430Z,3.00
2023-05-22T06:56:20.141Z,2.70
2023-05-22T06:59:30.285Z,2.50
2023-05-22T07:02:40.952Z,3.00
2023-05-22T07:05:51.690Z,2.70
2023-05-22T07:11:55.373Z,2.30
2023-05-22T07:14:59.384Z,2.60
2023-05-22T07:18:03.670Z,3.00
2023-05-22T07:21:08.471Z,2.70
2023-05-22T07:24:10.702Z,2.40
2023-05-22T07:27:15.350Z,3.00
2023-05-22T07:30:17.668Z,2.50
2023-05-22T07:33:22.129Z,2.60
2023-05-22T07:36:24.470Z,2.30
2023-05-22T07:39:29.043Z,2.20
2023-05-22T07:42:31.019Z,2.40
2023-05-22T07:48:37.973Z,1.90
2023-05-22T07:51:41.761Z,2.20
2023-05-22T07:54:45.520Z,1.90
2023-05-22T07:57:48.720Z,2.20
2023-05-22T08:00:57.795Z,1.80
2023-05-22T08:04:00.001Z,1.90
2023-05-22T08:07:02.059Z,1.90
2023-05-22T08:10:07.910Z,2.10
2023-05-22T08:13:16.149Z,2.20
2023-05-22T08:16:18.121Z,2.40
2023-05-22T08:19:21.253Z,2.50
2023-05-22T08:22:23.268Z,2.60
2023-05-22T08:25:25.119Z,2.60
2023-05-22T08:31:28.930Z,2.50
2023-05-22T08:34:32.369Z,2.30
2023-05-22T08:37:34.197Z,1.90
2023-05-22T08:40:38.732Z,2.10
2023-05-22T08:43:41.339Z,2.40
2023-05-22T08:49:51.237Z,2.00
2023-05-22T08:52:56.913Z,2.10
2023-05-22T08:55:59.308Z,2.30
2023-05-22T08:59:01.652Z,2.20
2023-05-22T09:02:06.660Z,1.80
2023-05-22T09:05:09.382Z,2.30
2023-05-22T09:08:19.797Z,2.00
2023-05-22T09:11:23.895Z,2.40
2023-05-22T09:14:25.712Z,2.30
2023-05-22T09:17:27.535Z,2.40
2023-05-22T09:23:31.735Z,2.00
2023-05-22T09:26:34.029Z,2.30
2023-05-22T09:29:49.072Z,2.00
2023-05-22T09:32:51.158Z,2.20
2023-05-22T09:35:53.671Z,2.30
2023-05-22T09:38:55.874Z,2.50
2023-05-22T09:42:00.904Z,2.40
2023-05-22T09:45:07.126Z,2.40
2023-05-22T09:48:09.758Z,2.40
2023-05-22T09:51:12.602Z,2.60
2023-05-22T09:54:15.552Z,2.20
2023-05-22T09:57:18.974Z,2.30
2023-05-22T10:00:22.889Z,2.60
2023-05-22T10:03:26.668Z,2.00
2023-05-22T10:06:30.926Z,2.10
2023-05-22T10:09:37.743Z,2.00
2023-05-22T10:12:44.791Z,2.10
2023-05-22T10:15:48.497Z,2.60
2023-05-22T10:18:51.976Z,2.20
2023-05-22T10:21:56.552Z,2.30
2023-05-22T10:25:01.486Z,2.80
2023-05-22T10:28:12.148Z,2.50
2023-05-22T10:31:31.744Z,2.20
2023-05-22T10:35:08.261Z,2.00
2023-05-22T10:38:30.104Z,2.50
2023-05-22T10:41:34.311Z,2.30
2023-05-22T10:44:36.156Z,2.10
2023-05-22T10:47:38.188Z,2.70
2023-05-22T10:50:52.316Z,2.30
2023-05-22T10:54:04.760Z,2.60
2023-05-22T10:57:12.859Z,2.40
2023-05-22T11:00:15.762Z,2.40
2023-05-22T11:03:21.097Z,2.70
2023-05-22T11:06:42.884Z,4.00
2023-05-22T11:09:47.841Z,3.10
2023-05-22T11:13:02.528Z,2.30
2023-05-22T11:16:05.728Z,2.20
2023-05-22T11:19:22.009Z,2.60
2023-05-22T11:22:32.200Z,1.90
2023-05-22T11:25:36.029Z,2.40
2023-05-22T11:28:38.668Z,2.20
2023-05-22T11:31:41.040Z,2.20
2023-05-22T11:34:43.391Z,2.70
2023-05-22T11:37:46.513Z,2.10
2023-05-22T11:40:51.381Z,2.40
2023-05-22T11:43:53.388Z,1.90
2023-05-22T11:49:58.059Z,2.40
2023-05-22T11:53:02.151Z,2.50
2023-05-22T11:56:05.332Z,2.20
2023-05-22T11:59:07.222Z,2.30
2023-05-22T12:05:11.339Z,2.20
2023-05-22T12:08:13.201Z,2.50
2023-05-22T12:11:15.984Z,2.20
2023-05-22T12:14:17.898Z,2.50
2023-05-22T12:20:21.418Z,2.40
2023-05-22T12:23:24.845Z,2.20
2023-05-22T12:26:26.643Z,1.90
2023-05-22T12:29:28.573Z,2.00
2023-05-22T12:32:30.505Z,1.80
2023-05-22T12:38:35.545Z,2.20
2023-05-22T12:41:38.303Z,5.20
2023-05-22T12:44:40.166Z,2.20
2023-05-22T12:50:44.411Z,2.10
2023-05-22T12:53:46.271Z,2.20
2023-05-22T12:59:49.867Z,2.30
2023-05-22T13:05:53.636Z,1.80
2023-05-22T13:11:57.369Z,2.40
2023-05-22T13:18:01.287Z,2.40
2023-05-22T13:24:04.884Z,2.30
2023-05-22T13:30:09.381Z,2.10
2023-05-22T13:33:11.796Z,2.60
2023-05-22T13:36:13.716Z,1.90
2023-05-22T13:42:17.438Z,2.20
2023-05-22T13:45:19.357Z,1.80
2023-05-22T13:48:21.576Z,2.20
2023-05-22T13:54:25.392Z,2.10
2023-05-22T14:00:29.043Z,1.90
2023-05-22T14:06:32.817Z,2.10
2023-05-22T14:09:34.618Z,2.30
2023-05-22T14:12:36.443Z,2.60
2023-05-22T14:18:40.314Z,2.40
2023-05-22T14:21:42.367Z,2.70
2023-05-22T14:24:44.524Z,2.10
2023-05-22T14:27:46.354Z,2.50
2023-05-22T14:30:48.138Z,2.00
2023-05-22T14:36:52.206Z,2.10
2023-05-22T14:42:56.046Z,2.10
2023-05-22T14:45:58.591Z,2.30
2023-05-22T14:49:00.537Z,2.40
2023-05-22T14:52:02.536Z,2.10
2023-05-22T14:58:06.303Z,2.30
2023-05-22T15:01:08.261Z,6.00
2023-05-22T15:04:10.138Z,2.40
2023-05-22T15:10:13.739Z,2.30
2023-05-22T15:13:15.522Z,2.10
2023-05-22T15:16:17.284Z,2.40
2023-05-22T15:19:19.251Z,2.20
2023-05-22T15:22:22.415Z,1.90
2023-05-22T15:25:24.219Z,2.30
2023-05-22T15:28:25.971Z,2.50
2023-05-22T15:31:28.751Z,2.50
2023-05-22T15:34:30.805Z,2.00
2023-05-22T15:40:38.746Z,2.00
2023-05-22T15:43:40.738Z,2.50
2023-05-22T15:46:42.718Z,2.40
2023-05-22T15:52:46.158Z,2.30
2023-05-22T15:55:49.250Z,2.40
2023-05-22T15:58:50.965Z,1.80
2023-05-22T16:01:52.707Z,2.30
2023-05-22T16:04:54.566Z,2.40
2023-05-22T16:07:56.379Z,2.70
2023-05-22T16:11:00.892Z,2.40
2023-05-22T16:14:03.426Z,2.20
2023-05-22T16:17:05.657Z,2.30
2023-05-22T16:20:08.105Z,2.20
2023-05-22T16:23:09.870Z,2.40
2023-05-22T16:26:11.656Z,2.00
2023-05-22T16:29:14.421Z,2.20
2023-05-22T16:32:16.301Z,2.40
2023-05-22T16:35:19.039Z,2.20
2023-05-22T16:38:20.932Z,2.30
2023-05-22T16:41:22.739Z,2.50
2023-05-22T16:44:24.564Z,2.20
2023-05-22T16:47:26.334Z,2.40
2023-05-22T16:50:28.845Z,3.00
2023-05-22T16:53:30.905Z,2.60
2023-05-22T16:56:33.801Z,2.50
2023-05-22T16:59:35.660Z,2.10
2023-05-22T17:02:38.968Z,2.60
2023-05-22T17:05:41.446Z,2.40
2023-05-22T17:08:43.618Z,2.70
2023-05-22T17:11:45.507Z,2.70
2023-05-22T17:14:47.235Z,2.60
2023-05-22T17:17:49.037Z,2.40
2023-05-22T17:20:53.181Z,2.60
2023-05-22T17:23:55.707Z,2.50
2023-05-22T17:26:57.411Z,2.60
2023-05-22T17:29:59.245Z,2.50
2023-05-22T17:33:02.983Z,2.50
2023-05-22T17:36:05.203Z,2.60
2023-05-22T17:39:07.127Z,4.10
2023-05-22T17:42:10.093Z,2.80
2023-05-22T17:45:13.703Z,3.90
2023-05-22T17:51:18.011Z,2.20
2023-05-22T17:54:19.770Z,2.50
2023-05-22T17:57:21.931Z,2.30
2023-05-22T18:00:23.681Z,2.30
2023-05-22T18:03:25.892Z,2.70
2023-05-22T18:06:28.586Z,2.50
2023-05-22T18:09:30.507Z,2.70
2023-05-22T18:12:32.509Z,2.60
2023-05-22T18:15:34.278Z,2.80
2023-05-22T18:18:36.067Z,2.70
2023-05-22T18:21:37.779Z,3.20
2023-05-22T18:24:40.132Z,2.30
2023-05-22T18:27:41.905Z,2.80
2023-05-22T18:30:48.880Z,2.70
2023-05-22T18:33:50.645Z,3.00
2023-05-22T18:36:52.417Z,2.60
2023-05-22T18:39:54.219Z,2.50
2023-05-22T18:42:56.131Z,2.90
2023-05-22T18:45:58.242Z,2.70
2023-05-22T18:52:01.811Z,3.00
2023-05-22T18:55:04.349Z,3.00
2023-05-22T18:58:06.166Z,2.60
2023-05-22T19:01:08.208Z,3.20
2023-05-22T19:04:10.035Z,3.30
2023-05-22T19:07:11.881Z,3.30
2023-05-22T19:10:13.759Z,3.40
2023-05-22T19:13:15.608Z,3.10
2023-05-22T19:16:17.508Z,3.40
2023-05-22T19:19:19.335Z,3.20
2023-05-22T19:22:21.226Z,3.30
2023-05-22T19:25:23.298Z,3.50
2023-05-22T19:31:28.371Z,3.30
2023-05-22T19:34:30.215Z,3.40
2023-05-22T19:37:32.001Z,3.40
2023-05-22T19:40:33.960Z,3.20
2023-05-22T19:46:37.722Z,3.30
2023-05-22T19:49:39.934Z,3.50
2023-05-22T19:55:45.459Z,4.00
2023-05-22T20:01:49.971Z,3.20
2023-05-22T20:04:54.156Z,3.60
2023-05-22T20:07:57.402Z,3.90
2023-05-22T20:10:59.361Z,3.70
2023-05-22T20:14:01.908Z,3.70
2023-05-22T20:17:03.929Z,4.20
2023-05-22T20:20:07.263Z,3.60
2023-05-22T20:23:10.746Z,3.40
2023-05-22T20:26:12.592Z,3.70
2023-05-22T20:29:14.539Z,3.60
2023-05-22T20:32:16.553Z,3.80
2023-05-22T20:35:19.566Z,3.80
2023-05-22T20:38:21.828Z,4.00
2023-05-22T20:41:24.287Z,3.70
2023-05-22T20:44:26.426Z,4.10
2023-05-22T20:50:32.136Z,4.10
2023-05-22T20:53:33.931Z,4.60
2023-05-22T20:56:36.980Z,4.50
2023-05-22T20:59:38.940Z,4.20
2023-05-22T21:02:40.767Z,4.30
2023-05-22T21:05:42.580Z,4.80
2023-05-22T21:08:44.290Z,4.70
2023-05-22T21:11:46.138Z,5.00
2023-05-22T21:14:47.873Z,5.10
2023-05-22T21:17:49.759Z,4.70
2023-05-22T21:20:52.617Z,4.30
2023-05-22T21:23:54.530Z,4.80
2023-05-22T21:26:56.325Z,4.40
2023-05-22T21:29:58.167Z,4.80
2023-05-22T21:33:00.569Z,5.00
2023-05-22T21:36:02.552Z,4.80
2023-05-22T21:39:04.303Z,4.60
2023-05-22T21:42:06.570Z,5.00
2023-05-22T21:45:08.656Z,5.00
2023-05-22T21:48:10.960Z,4.70
2023-05-22T21:51:12.757Z,5.00
2023-05-22T21:54:14.446Z,4.90
2023-05-22T21:57:16.225Z,5.60
2023-05-22T22:00:19.015Z,4.90
2023-05-22T22:03:20.890Z,5.00
2023-05-22T22:06:23.618Z,5.60
2023-05-22T22:09:25.302Z,5.20
2023-05-22T22:12:27.010Z,5.10
2023-05-22T22:15:29.252Z,4.90
2023-05-22T22:21:34.429Z,4.60
2023-05-22T22:24:36.400Z,5.00
2023-05-22T22:27:38.109Z,5.10
2023-05-22T22:30:40.125Z,4.60
2023-05-22T22:36:43.827Z,4.70
2023-05-22T22:39:45.676Z,4.40
2023-05-22T22:42:47.441Z,5.00
2023-05-22T22:45:49.268Z,4.90
2023-05-22T22:48:50.979Z,4.80
2023-05-22T22:51:53.889Z,4.70
2023-05-22T22:54:55.671Z,4.70
2023-05-22T22:57:57.417Z,5.20
2023-05-22T23:00:59.170Z,5.00
2023-05-22T23:04:01.125Z,4.80
2023-05-22T23:07:03.559Z,4.70
2023-05-22T23:10:06.022Z,4.90
2023-05-22T23:13:07.970Z,5.20
2023-05-22T23:16:09.741Z,4.80
2023-05-22T23:19:13.274Z,4.80
2023-05-22T23:22:15.046Z,4.60
2023-05-22T23:25:16.924Z,4.90
2023-05-22T23:28:18.651Z,4.50
2023-05-22T23:31:25.173Z,5.10
2023-05-22T23:34:26.951Z,4.90
2023-05-22T23:37:28.694Z,4.90
2023-05-22T23:40:30.432Z,5.00
2023-05-22T23:43:32.145Z,4.80
2023-05-22T23:46:35.138Z,4.90
2023-05-22T23:49:36.912Z,5.20
2023-05-22T23:52:38.641Z,4.70
2023-05-22T23:55:40.611Z,4.50
